createdAt,value
2018-08-12T00:00:34.599Z,1013.83
2018-08-12T00:01:34.586Z,1013.84
2018-08-12T00:02:34.614Z,1013.82
2018-08-12T00:03:34.567Z,1013.81
2018-08-12T00:04:34.568Z,1013.82
2018-08-12T00:05:34.559Z,1013.82
2018-08-12T00:06:34.551Z,1013.78
2018-08-12T00:07:34.557Z,1013.80
2018-08-12T00:08:34.546Z,1013.76
2018-08-12T00:09:34.552Z,1013.75
2018-08-12T00:10:34.547Z,1013.76
2018-08-12T00:11:34.533Z,1013.72
2018-08-12T00:12:34.530Z,1013.73
2018-08-12T00:13:34.525Z,1013.73
2018-08-12T00:14:34.519Z,1013.68
2018-08-12T00:15:34.512Z,1013.68
2018-08-12T00:16:34.509Z,1013.71
2018-08-12T00:17:34.515Z,1013.68
2018-08-12T00:18:34.501Z,1013.67
2018-08-12T00:19:34.496Z,1013.66
2018-08-12T00:20:34.494Z,1013.69
2018-08-12T00:21:34.488Z,1013.65
2018-08-12T00:22:34.485Z,1013.61
2018-08-12T00:23:34.491Z,1013.61
2018-08-12T00:24:34.489Z,1013.62
2018-08-12T00:25:34.476Z,1013.59
2018-08-12T00:26:34.479Z,1013.61
2018-08-12T00:27:34.463Z,1013.62
2018-08-12T00:28:34.454Z,1013.62
2018-08-12T00:29:34.486Z,1013.60
2018-08-12T00:30:34.484Z,1013.57
2018-08-12T00:31:34.443Z,1013.61
2018-08-12T00:32:34.441Z,1013.55
2018-08-12T00:33:34.430Z,1013.54
2018-08-12T00:34:34.426Z,1013.51
2018-08-12T00:35:34.469Z,1013.51
2018-08-12T00:36:34.418Z,1013.50
2018-08-12T00:37:34.416Z,1013.49
2018-08-12T00:38:34.439Z,1013.52
2018-08-12T00:39:34.416Z,1013.51
2018-08-12T00:40:34.400Z,1013.53
2018-08-12T00:41:34.402Z,1013.49
2018-08-12T00:42:34.393Z,1013.50
2018-08-12T00:43:34.390Z,1013.50
2018-08-12T00:44:34.385Z,1013.48
2018-08-12T00:45:34.381Z,1013.46
2018-08-12T00:46:34.417Z,1013.51
2018-08-12T00:47:34.389Z,1013.52
2018-08-12T00:48:34.379Z,1013.49
2018-08-12T00:49:34.364Z,1013.48
2018-08-12T00:50:34.358Z,1013.49
2018-08-12T00:51:34.357Z,1013.49
2018-08-12T00:52:34.356Z,1013.51
2018-08-12T00:53:34.346Z,1013.48
2018-08-12T00:54:34.338Z,1013.46
2018-08-12T00:55:34.336Z,1013.48
2018-08-12T00:56:34.338Z,1013.49
2018-08-12T00:57:34.352Z,1013.47
2018-08-12T00:58:34.324Z,1013.46
2018-08-12T00:59:34.323Z,1013.52
2018-08-12T01:00:34.315Z,1013.47
2018-08-12T01:01:34.309Z,1013.46
2018-08-12T01:02:34.302Z,1013.48
2018-08-12T01:03:34.300Z,1013.46
2018-08-12T01:04:34.296Z,1013.45
2018-08-12T01:05:34.287Z,1013.45
2018-08-12T01:06:34.309Z,1013.43
2018-08-12T01:07:34.280Z,1013.44
2018-08-12T01:08:34.287Z,1013.44
2018-08-12T01:09:34.268Z,1013.41
2018-08-12T01:10:34.265Z,1013.35
2018-08-12T01:11:34.264Z,1013.36
2018-08-12T01:12:34.255Z,1013.34
2018-08-12T01:13:34.264Z,1013.33
2018-08-12T01:14:34.243Z,1013.34
2018-08-12T01:15:34.248Z,1013.34
2018-08-12T01:16:34.265Z,1013.33
2018-08-12T01:17:34.239Z,1013.37
2018-08-12T01:18:49.347Z,1013.39
2018-08-12T01:19:34.222Z,1013.42
2018-08-12T01:20:34.214Z,1013.43
2018-08-12T01:21:34.214Z,1013.45
2018-08-12T01:22:34.206Z,1013.41
2018-08-12T01:23:34.204Z,1013.42
2018-08-12T01:24:34.210Z,1013.42
2018-08-12T01:25:34.193Z,1013.37
2018-08-12T01:26:34.195Z,1013.38
2018-08-12T01:27:34.184Z,1013.34
2018-08-12T01:28:34.216Z,1013.34
2018-08-12T01:29:34.714Z,1013.34
2018-08-12T01:30:34.169Z,1013.34
2018-08-12T01:31:34.171Z,1013.36
2018-08-12T01:32:34.175Z,1013.33
2018-08-12T01:33:34.163Z,1013.36
2018-08-12T01:34:34.153Z,1013.38
2018-08-12T01:35:34.157Z,1013.36
2018-08-12T01:36:34.154Z,1013.34
2018-08-12T01:37:34.137Z,1013.38
2018-08-12T01:38:34.721Z,1013.34
2018-08-12T01:39:34.125Z,1013.31
2018-08-12T01:40:34.128Z,1013.30
2018-08-12T01:41:34.128Z,1013.28
2018-08-12T01:42:34.130Z,1013.26
2018-08-12T01:43:34.111Z,1013.26
2018-08-12T01:44:34.134Z,1013.29
2018-08-12T01:45:34.100Z,1013.27
2018-08-12T01:46:34.091Z,1013.26
2018-08-12T01:47:34.089Z,1013.27
2018-08-12T01:48:34.081Z,1013.25
2018-08-12T01:49:34.091Z,1013.23
2018-08-12T01:50:34.075Z,1013.23
2018-08-12T01:51:34.069Z,1013.20
2018-08-12T01:52:34.070Z,1013.17
2018-08-12T01:53:34.101Z,1013.15
2018-08-12T01:54:34.049Z,1013.12
2018-08-12T01:55:34.052Z,1013.09
2018-08-12T01:56:34.039Z,1013.09
2018-08-12T01:57:34.033Z,1013.02
2018-08-12T01:58:34.041Z,1013.00
2018-08-12T01:59:34.035Z,1013.03
2018-08-12T02:00:34.069Z,1012.99
2018-08-12T02:01:34.020Z,1012.99
2018-08-12T02:02:34.013Z,1012.97
2018-08-12T02:03:34.011Z,1012.95
2018-08-12T02:04:34.013Z,1013.00
2018-08-12T02:05:34.020Z,1012.98
2018-08-12T02:06:34.003Z,1012.98
2018-08-12T02:07:33.994Z,1012.96
2018-08-12T02:08:34.012Z,1012.92
2018-08-12T02:09:33.973Z,1012.91
2018-08-12T02:10:34.744Z,1012.89
2018-08-12T02:11:33.971Z,1012.89
2018-08-12T02:12:33.967Z,1012.83
2018-08-12T02:13:33.956Z,1012.83
2018-08-12T02:14:33.950Z,1012.82
2018-08-12T02:15:33.977Z,1012.81
2018-08-12T02:16:33.959Z,1012.78
2018-08-12T02:17:33.931Z,1012.74
2018-08-12T02:18:33.946Z,1012.74
2018-08-12T02:19:33.927Z,1012.76
2018-08-12T02:20:33.927Z,1012.71
2018-08-12T02:21:33.910Z,1012.71
2018-08-12T02:22:33.909Z,1012.68
2018-08-12T02:23:33.916Z,1012.68
2018-08-12T02:24:33.907Z,1012.66
2018-08-12T02:25:33.921Z,1012.59
2018-08-12T02:26:33.932Z,1012.63
2018-08-12T02:27:33.906Z,1012.63
2018-08-12T02:28:33.879Z,1012.58
2018-08-12T02:29:33.892Z,1012.54
2018-08-12T02:30:33.871Z,1012.57
2018-08-12T02:31:33.862Z,1012.56
2018-08-12T02:32:33.873Z,1012.53
2018-08-12T02:33:33.866Z,1012.50
2018-08-12T02:34:33.844Z,1012.53
2018-08-12T02:35:33.843Z,1012.52
2018-08-12T02:36:34.756Z,1012.52
2018-08-12T02:37:33.839Z,1012.54
2018-08-12T02:38:33.819Z,1012.53
2018-08-12T02:39:33.831Z,1012.51
2018-08-12T02:40:33.838Z,1012.47
2018-08-12T02:41:33.833Z,1012.49
2018-08-12T02:42:33.813Z,1012.45
2018-08-12T02:43:33.809Z,1012.43
2018-08-12T02:44:33.796Z,1012.45
2018-08-12T02:45:33.788Z,1012.44
2018-08-12T02:46:33.776Z,1012.41
2018-08-12T02:47:33.773Z,1012.45
2018-08-12T02:48:33.788Z,1012.43
2018-08-12T02:49:33.764Z,1012.40
2018-08-12T02:50:33.779Z,1012.40
2018-08-12T02:51:33.760Z,1012.46
2018-08-12T02:52:33.750Z,1012.41
2018-08-12T02:53:33.743Z,1012.42
2018-08-12T02:54:33.746Z,1012.42
2018-08-12T02:55:33.743Z,1012.38
2018-08-12T02:56:33.727Z,1012.43
2018-08-12T02:57:33.724Z,1012.39
2018-08-12T02:58:33.723Z,1012.38
2018-08-12T02:59:33.711Z,1012.38
2018-08-12T03:00:33.709Z,1012.35
2018-08-12T03:01:33.704Z,1012.35
2018-08-12T03:02:34.261Z,1012.33
2018-08-12T03:03:33.693Z,1012.35
2018-08-12T03:04:33.683Z,1012.34
2018-08-12T03:05:33.690Z,1012.28
2018-08-12T03:06:33.678Z,1012.28
2018-08-12T03:07:33.680Z,1012.27
2018-08-12T03:08:33.666Z,1012.21
2018-08-12T03:09:33.656Z,1012.22
2018-08-12T03:10:33.653Z,1012.24
2018-08-12T03:11:33.651Z,1012.25
2018-08-12T03:12:33.647Z,1012.21
2018-08-12T03:13:33.638Z,1012.20
2018-08-12T03:14:33.632Z,1012.17
2018-08-12T03:15:33.644Z,1012.18
2018-08-12T03:16:33.638Z,1012.18
2018-08-12T03:17:33.618Z,1012.12
2018-08-12T03:18:33.613Z,1012.13
2018-08-12T03:19:33.609Z,1012.14
2018-08-12T03:20:33.615Z,1012.11
2018-08-12T03:21:33.591Z,1012.11
2018-08-12T03:22:33.687Z,1012.09
2018-08-12T03:23:33.583Z,1012.11
2018-08-12T03:24:33.576Z,1012.10
2018-08-12T03:25:33.605Z,1012.05
2018-08-12T03:26:33.575Z,1012.04
2018-08-12T03:27:33.560Z,1012.04
2018-08-12T03:28:33.557Z,1012.05
2018-08-12T03:29:33.549Z,1012.03
2018-08-12T03:30:33.547Z,1012.02
2018-08-12T03:31:33.546Z,1012.00
2018-08-12T03:32:33.543Z,1012.01
2018-08-12T03:33:33.533Z,1011.97
2018-08-12T03:34:33.520Z,1011.95
2018-08-12T03:35:33.517Z,1011.95
2018-08-12T03:36:33.537Z,1011.96
2018-08-12T03:37:33.508Z,1011.93
2018-08-12T03:38:33.499Z,1011.91
2018-08-12T03:39:33.498Z,1011.92
2018-08-12T03:40:33.490Z,1011.89
2018-08-12T03:41:33.483Z,1011.88
2018-08-12T03:42:33.483Z,1011.87
2018-08-12T03:43:33.474Z,1011.88
2018-08-12T03:44:33.468Z,1011.87
2018-08-12T03:45:33.465Z,1011.84
2018-08-12T03:46:33.453Z,1011.85
2018-08-12T03:47:33.453Z,1011.87
2018-08-12T03:48:34.281Z,1011.86
2018-08-12T03:49:33.451Z,1011.85
2018-08-12T03:50:35.285Z,1011.84
2018-08-12T03:51:33.436Z,1011.83
2018-08-12T03:52:33.426Z,1011.84
2018-08-12T03:53:33.450Z,1011.83
2018-08-12T03:54:33.444Z,1011.80
2018-08-12T03:55:33.414Z,1011.81
2018-08-12T03:56:33.407Z,1011.79
2018-08-12T03:57:33.409Z,1011.76
2018-08-12T03:58:33.393Z,1011.77
2018-08-12T03:59:35.298Z,1011.75
2018-08-12T04:00:33.379Z,1011.71
2018-08-12T04:01:33.372Z,1011.68
2018-08-12T04:02:33.364Z,1011.68
2018-08-12T04:03:33.358Z,1011.70
2018-08-12T04:04:33.359Z,1011.69
2018-08-12T04:05:33.352Z,1011.69
2018-08-12T04:06:33.366Z,1011.63
2018-08-12T04:07:33.342Z,1011.69
2018-08-12T04:08:33.332Z,1011.69
2018-08-12T04:09:33.330Z,1011.66
2018-08-12T04:10:33.328Z,1011.69
2018-08-12T04:11:33.315Z,1011.69
2018-08-12T04:12:33.309Z,1011.65
2018-08-12T04:13:33.308Z,1011.68
2018-08-12T04:14:33.300Z,1011.65
2018-08-12T04:15:33.297Z,1011.65
2018-08-12T04:16:33.289Z,1011.58
2018-08-12T04:17:33.278Z,1011.56
2018-08-12T04:18:33.274Z,1011.61
2018-08-12T04:19:33.273Z,1011.66
2018-08-12T04:20:33.268Z,1011.60
2018-08-12T04:21:33.289Z,1011.61
2018-08-12T04:22:33.258Z,1011.62
2018-08-12T04:23:33.250Z,1011.64
2018-08-12T04:24:33.248Z,1011.61
2018-08-12T04:25:33.233Z,1011.63
2018-08-12T04:26:33.233Z,1011.59
2018-08-12T04:27:33.222Z,1011.63
2018-08-12T04:28:33.220Z,1011.62
2018-08-12T04:29:33.212Z,1011.65
2018-08-12T04:30:33.213Z,1011.62
2018-08-12T04:31:33.207Z,1011.60
2018-08-12T04:32:33.195Z,1011.59
2018-08-12T04:33:33.199Z,1011.65
2018-08-12T04:34:33.187Z,1011.59
2018-08-12T04:35:33.175Z,1011.56
2018-08-12T04:36:33.180Z,1011.52
2018-08-12T04:37:33.167Z,1011.58
2018-08-12T04:38:33.170Z,1011.55
2018-08-12T04:39:33.155Z,1011.51
2018-08-12T04:40:33.151Z,1011.50
2018-08-12T04:41:33.151Z,1011.49
2018-08-12T04:42:33.159Z,1011.49
2018-08-12T04:43:33.141Z,1011.48
2018-08-12T04:44:33.128Z,1011.44
2018-08-12T04:45:33.122Z,1011.44
2018-08-12T04:46:33.120Z,1011.45
2018-08-12T04:47:33.121Z,1011.44
2018-08-12T04:48:33.107Z,1011.45
2018-08-12T04:49:33.102Z,1011.41
2018-08-12T04:50:33.093Z,1011.40
2018-08-12T04:51:33.094Z,1011.39
2018-08-12T04:52:33.085Z,1011.39
2018-08-12T04:53:33.105Z,1011.42
2018-08-12T04:54:33.072Z,1011.38
2018-08-12T04:55:33.073Z,1011.36
2018-08-12T04:56:33.066Z,1011.37
2018-08-12T04:57:33.059Z,1011.39
2018-08-12T04:58:33.056Z,1011.41
2018-08-12T04:59:33.054Z,1011.37
2018-08-12T05:00:33.039Z,1011.39
2018-08-12T05:01:33.032Z,1011.40
2018-08-12T05:02:33.028Z,1011.40
2018-08-12T05:03:33.049Z,1011.43
2018-08-12T05:04:33.031Z,1011.45
2018-08-12T05:05:33.011Z,1011.43
2018-08-12T05:06:33.008Z,1011.46
2018-08-12T05:07:33.007Z,1011.43
2018-08-12T05:08:32.997Z,1011.42
2018-08-12T05:09:32.988Z,1011.36
2018-08-12T05:10:32.994Z,1011.40
2018-08-12T05:11:33.000Z,1011.36
2018-08-12T05:12:32.976Z,1011.40
2018-08-12T05:13:32.970Z,1011.38
2018-08-12T05:14:32.972Z,1011.41
2018-08-12T05:15:32.962Z,1011.44
2018-08-12T05:16:32.957Z,1011.44
2018-08-12T05:17:32.954Z,1011.41
2018-08-12T05:18:32.958Z,1011.42
2018-08-12T05:19:32.941Z,1011.42
2018-08-12T05:20:32.937Z,1011.41
2018-08-12T05:21:32.936Z,1011.39
2018-08-12T05:22:32.931Z,1011.41
2018-08-12T05:23:32.923Z,1011.38
2018-08-12T05:24:32.922Z,1011.35
2018-08-12T05:25:32.919Z,1011.37
2018-08-12T05:26:32.906Z,1011.37
2018-08-12T05:27:32.907Z,1011.36
2018-08-12T05:28:32.916Z,1011.36
2018-08-12T05:29:32.908Z,1011.31
2018-08-12T05:30:32.906Z,1011.28
2018-08-12T05:31:32.895Z,1011.27
2018-08-12T05:32:32.883Z,1011.30
2018-08-12T05:33:32.877Z,1011.28
2018-08-12T05:34:32.877Z,1011.29
2018-08-12T05:35:32.948Z,1011.31
2018-08-12T05:36:32.867Z,1011.30
2018-08-12T05:37:32.867Z,1011.30
2018-08-12T05:38:32.864Z,1011.28
2018-08-12T05:39:32.866Z,1011.27
2018-08-12T05:40:32.864Z,1011.25
2018-08-12T05:41:32.853Z,1011.25
2018-08-12T05:42:32.851Z,1011.27
2018-08-12T05:43:32.851Z,1011.24
2018-08-12T05:44:32.838Z,1011.25
2018-08-12T05:45:32.836Z,1011.25
2018-08-12T05:46:32.834Z,1011.27
2018-08-12T05:47:32.849Z,1011.26
2018-08-12T05:48:32.824Z,1011.26
2018-08-12T05:49:32.825Z,1011.24
2018-08-12T05:50:32.816Z,1011.21
2018-08-12T05:51:32.902Z,1011.24
2018-08-12T05:52:32.814Z,1011.18
2018-08-12T05:53:32.810Z,1011.19
2018-08-12T05:54:32.806Z,1011.25
2018-08-12T05:55:32.814Z,1011.24
2018-08-12T05:56:32.800Z,1011.24
2018-08-12T05:57:32.797Z,1011.19
2018-08-12T05:58:32.793Z,1011.18
2018-08-12T05:59:32.799Z,1011.12
2018-08-12T06:00:32.800Z,1011.14
2018-08-12T06:01:32.783Z,1011.15
2018-08-12T06:02:32.852Z,1011.10
2018-08-12T06:03:32.787Z,1011.11
2018-08-12T06:04:32.775Z,1011.07
2018-08-12T06:05:32.771Z,1011.07
2018-08-12T06:06:32.769Z,1011.07
2018-08-12T06:07:32.767Z,1011.06
2018-08-12T06:08:32.771Z,1011.05
2018-08-12T06:09:32.773Z,1011.00
2018-08-12T06:10:32.770Z,1011.05
2018-08-12T06:11:32.800Z,1010.99
2018-08-12T06:12:32.752Z,1011.00
2018-08-12T06:13:32.747Z,1011.06
2018-08-12T06:14:32.747Z,1011.02
2018-08-12T06:15:32.804Z,1011.04
2018-08-12T06:16:32.745Z,1011.04
2018-08-12T06:17:32.859Z,1011.03
2018-08-12T06:18:32.741Z,1011.01
2018-08-12T06:19:32.735Z,1010.98
2018-08-12T06:20:32.735Z,1010.96
2018-08-12T06:21:32.735Z,1010.94
2018-08-12T06:22:32.726Z,1010.98
2018-08-12T06:23:32.724Z,1010.96
2018-08-12T06:24:32.727Z,1010.92
2018-08-12T06:25:32.716Z,1010.93
2018-08-12T06:26:32.717Z,1010.91
2018-08-12T06:27:32.720Z,1010.87
2018-08-12T06:28:32.711Z,1010.91
2018-08-12T06:29:32.706Z,1010.95
2018-08-12T06:30:32.712Z,1010.94
2018-08-12T06:31:32.743Z,1010.99
2018-08-12T06:32:32.710Z,1010.91
2018-08-12T06:33:32.715Z,1010.92
2018-08-12T06:34:32.737Z,1010.89
2018-08-12T06:35:32.725Z,1010.90
2018-08-12T06:36:32.718Z,1010.84
2018-08-12T06:37:32.702Z,1010.85
2018-08-12T06:38:32.701Z,1010.86
2018-08-12T06:39:32.690Z,1010.80
2018-08-12T06:40:32.688Z,1010.81
2018-08-12T06:41:32.688Z,1010.83
2018-08-12T06:42:32.685Z,1010.76
2018-08-12T06:43:32.716Z,1010.77
2018-08-12T06:44:32.690Z,1010.76
2018-08-12T06:45:32.680Z,1010.85
2018-08-12T06:46:32.676Z,1010.78
2018-08-12T06:47:32.676Z,1010.76
2018-08-12T06:48:32.700Z,1010.73
2018-08-12T06:49:32.668Z,1010.73
2018-08-12T06:50:32.671Z,1010.75
2018-08-12T06:51:32.669Z,1010.74
2018-08-12T06:52:32.664Z,1010.82
2018-08-12T06:53:32.667Z,1010.85
2018-08-12T06:54:32.665Z,1010.86
2018-08-12T06:55:32.665Z,1010.88
2018-08-12T06:56:32.665Z,1010.86
2018-08-12T06:57:32.677Z,1010.85
2018-08-12T06:58:32.652Z,1010.87
2018-08-12T06:59:32.657Z,1010.88
2018-08-12T07:00:32.674Z,1010.88
2018-08-12T07:01:32.651Z,1010.92
2018-08-12T07:02:32.646Z,1010.90
2018-08-12T07:03:32.645Z,1010.93
2018-08-12T07:04:32.651Z,1010.92
2018-08-12T07:05:32.652Z,1010.90
2018-08-12T07:06:32.642Z,1010.91
2018-08-12T07:07:32.638Z,1010.88
2018-08-12T07:08:32.640Z,1010.89
2018-08-12T07:09:32.634Z,1010.95
2018-08-12T07:10:32.640Z,1010.89
2018-08-12T07:11:32.635Z,1010.87
2018-08-12T07:12:32.646Z,1010.81
2018-08-12T07:13:32.620Z,1010.83
2018-08-12T07:14:32.627Z,1010.80
2018-08-12T07:15:32.616Z,1010.84
2018-08-12T07:16:32.623Z,1010.82
2018-08-12T07:17:32.616Z,1010.86
2018-08-12T07:18:32.623Z,1010.82
2018-08-12T07:19:37.408Z,1010.87
2018-08-12T07:20:32.612Z,1010.82
2018-08-12T07:21:32.612Z,1010.82
2018-08-12T07:22:32.603Z,1010.82
2018-08-12T07:23:32.612Z,1010.79
2018-08-12T07:24:32.618Z,1010.82
2018-08-12T07:25:32.600Z,1010.82
2018-08-12T07:26:32.605Z,1010.81
2018-08-12T07:27:32.609Z,1010.87
2018-08-12T07:28:32.598Z,1010.83
2018-08-12T07:29:32.600Z,1010.82
2018-08-12T07:30:32.609Z,1010.78
2018-08-12T07:31:32.615Z,1010.81
2018-08-12T07:32:32.626Z,1010.80
2018-08-12T07:33:32.602Z,1010.78
2018-08-12T07:34:32.611Z,1010.85
2018-08-12T07:35:32.689Z,1010.81
2018-08-12T07:36:32.674Z,1010.81
2018-08-12T07:37:32.603Z,1010.80
2018-08-12T07:38:32.643Z,1010.76
2018-08-12T07:39:32.607Z,1010.79
2018-08-12T07:40:33.617Z,1010.74
2018-08-12T07:41:32.622Z,1010.73
2018-08-12T07:42:34.415Z,1010.71
2018-08-12T07:43:32.616Z,1010.67
2018-08-12T07:44:32.616Z,1010.72
2018-08-12T07:45:32.619Z,1010.74
2018-08-12T07:46:32.620Z,1010.72
2018-08-12T07:47:32.627Z,1010.75
2018-08-12T07:48:32.639Z,1010.72
2018-08-12T07:49:32.628Z,1010.75
2018-08-12T07:50:32.650Z,1010.66
2018-08-12T07:51:32.634Z,1010.73
2018-08-12T07:52:32.674Z,1010.63
2018-08-12T07:53:32.646Z,1010.61
2018-08-12T07:54:32.671Z,1010.64
2018-08-12T07:55:32.758Z,1010.64
2018-08-12T07:56:32.652Z,1010.62
2018-08-12T07:57:32.717Z,1010.58
2018-08-12T07:58:32.671Z,1010.65
2018-08-12T07:59:32.658Z,1010.60
2018-08-12T08:00:32.670Z,1010.60
2018-08-12T08:01:32.700Z,1010.58
2018-08-12T08:02:32.730Z,1010.55
2018-08-12T08:03:32.683Z,1010.58
2018-08-12T08:04:33.444Z,1010.58
2018-08-12T08:05:32.705Z,1010.50
2018-08-12T08:06:32.692Z,1010.51
2018-08-12T08:07:32.696Z,1010.59
2018-08-12T08:08:32.700Z,1010.50
2018-08-12T08:09:37.435Z,1010.41
2018-08-12T08:10:32.717Z,1010.51
2018-08-12T08:11:32.719Z,1010.55
2018-08-12T08:12:32.735Z,1010.59
2018-08-12T08:13:32.725Z,1010.52
2018-08-12T08:14:32.722Z,1010.50
2018-08-12T08:15:32.730Z,1010.48
2018-08-12T08:16:32.736Z,1010.52
2018-08-12T08:17:32.789Z,1010.48
2018-08-12T08:18:32.767Z,1010.50
2018-08-12T08:19:32.743Z,1010.46
2018-08-12T08:20:32.746Z,1010.45
2018-08-12T08:21:32.748Z,1010.41
2018-08-12T08:22:32.754Z,1010.48
2018-08-12T08:23:32.774Z,1010.45
2018-08-12T08:24:32.776Z,1010.44
2018-08-12T08:25:32.876Z,1010.43
2018-08-12T08:26:32.793Z,1010.41
2018-08-12T08:27:32.831Z,1010.40
2018-08-12T08:28:32.822Z,1010.45
2018-08-12T08:29:32.790Z,1010.41
2018-08-12T08:30:32.799Z,1010.39
2018-08-12T08:31:32.928Z,1010.39
2018-08-12T08:32:32.867Z,1010.34
2018-08-12T08:33:32.805Z,1010.36
2018-08-12T08:34:32.808Z,1010.34
2018-08-12T08:35:32.837Z,1010.32
2018-08-12T08:36:32.832Z,1010.35
2018-08-12T08:37:32.855Z,1010.35
2018-08-12T08:38:32.823Z,1010.28
2018-08-12T08:39:32.829Z,1010.28
2018-08-12T08:40:32.835Z,1010.26
2018-08-12T08:41:32.837Z,1010.28
2018-08-12T08:42:32.855Z,1010.32
2018-08-12T08:43:32.856Z,1010.25
2018-08-12T08:44:32.854Z,1010.30
2018-08-12T08:45:32.864Z,1010.28
2018-08-12T08:46:32.867Z,1010.25
2018-08-12T08:47:32.872Z,1010.24
2018-08-12T08:48:32.879Z,1010.19
2018-08-12T08:49:32.876Z,1010.23
2018-08-12T08:50:32.965Z,1010.23
2018-08-12T08:51:32.914Z,1010.24
2018-08-12T08:52:33.456Z,1010.23
2018-08-12T08:53:32.904Z,1010.26
2018-08-12T08:54:32.905Z,1010.19
2018-08-12T08:55:32.944Z,1010.22
2018-08-12T08:56:32.919Z,1010.23
2018-08-12T08:57:32.922Z,1010.19
2018-08-12T08:58:32.930Z,1010.15
2018-08-12T08:59:32.937Z,1010.13
2018-08-12T09:00:32.941Z,1010.16
2018-08-12T09:01:32.944Z,1010.06
2018-08-12T09:02:32.965Z,1010.19
2018-08-12T09:03:32.959Z,1010.14
2018-08-12T09:04:32.965Z,1010.16
2018-08-12T09:05:32.971Z,1010.13
2018-08-12T09:06:32.977Z,1010.11
2018-08-12T09:07:32.982Z,1010.15
2018-08-12T09:08:33.188Z,1010.14
2018-08-12T09:09:32.994Z,1010.09
2018-08-12T09:10:33.002Z,1010.03
2018-08-12T09:11:33.008Z,1010.10
2018-08-12T09:12:33.012Z,1010.10
2018-08-12T09:13:33.025Z,1010.09
2018-08-12T09:14:33.028Z,1010.14
2018-08-12T09:15:33.035Z,1010.08
2018-08-12T09:16:33.041Z,1010.10
2018-08-12T09:17:33.048Z,1010.09
2018-08-12T09:18:33.054Z,1010.06
2018-08-12T09:19:33.057Z,1010.06
2018-08-12T09:20:33.061Z,1010.02
2018-08-12T09:21:33.072Z,1010.00
2018-08-12T09:22:33.082Z,1009.97
2018-08-12T09:23:33.087Z,1009.99
2018-08-12T09:24:33.093Z,1009.99
2018-08-12T09:25:33.100Z,1009.91
2018-08-12T09:26:33.104Z,1010.10
2018-08-12T09:27:33.114Z,1010.03
2018-08-12T09:28:33.123Z,1009.99
2018-08-12T09:29:33.130Z,1009.94
2018-08-12T09:30:33.134Z,1009.96
2018-08-12T09:31:33.135Z,1009.89
2018-08-12T09:32:33.149Z,1009.87
2018-08-12T09:33:33.161Z,1009.92
2018-08-12T09:34:33.162Z,1009.92
2018-08-12T09:35:33.172Z,1009.97
2018-08-12T09:36:33.174Z,1009.93
2018-08-12T09:37:33.217Z,1009.84
2018-08-12T09:38:33.192Z,1009.87
2018-08-12T09:39:33.204Z,1009.84
2018-08-12T09:40:33.209Z,1009.86
2018-08-12T09:41:33.216Z,1009.82
2018-08-12T09:42:33.241Z,1009.75
2018-08-12T09:43:33.232Z,1009.84
2018-08-12T09:44:33.242Z,1009.94
2018-08-12T09:45:33.249Z,1009.85
2018-08-12T09:46:33.251Z,1009.84
2018-08-12T09:47:33.263Z,1009.82
2018-08-12T09:48:33.268Z,1009.73
2018-08-12T09:49:33.272Z,1009.76
2018-08-12T09:50:33.289Z,1009.81
2018-08-12T09:51:33.348Z,1009.79
2018-08-12T09:52:33.299Z,1009.80
2018-08-12T09:53:33.311Z,1009.83
2018-08-12T09:54:33.318Z,1009.78
2018-08-12T09:55:33.323Z,1009.71
2018-08-12T09:56:33.339Z,1009.78
2018-08-12T09:57:33.344Z,1009.78
2018-08-12T09:58:33.415Z,1009.83
2018-08-12T09:59:33.355Z,1009.79
2018-08-12T10:00:33.359Z,1009.78
2018-08-12T10:01:33.467Z,1009.67
2018-08-12T10:02:33.375Z,1009.68
2018-08-12T10:03:33.387Z,1009.66
2018-08-12T10:04:33.396Z,1009.66
2018-08-12T10:05:33.423Z,1009.64
2018-08-12T10:06:33.410Z,1009.67
2018-08-12T10:07:33.443Z,1009.73
2018-08-12T10:08:33.416Z,1009.68
2018-08-12T10:09:33.436Z,1009.74
2018-08-12T10:10:33.441Z,1009.68
2018-08-12T10:11:33.478Z,1009.66
2018-08-12T10:12:33.454Z,1009.66
2018-08-12T10:13:33.463Z,1009.67
2018-08-12T10:14:33.467Z,1009.65
2018-08-12T10:15:33.478Z,1009.65
2018-08-12T10:16:33.477Z,1009.60
2018-08-12T10:17:33.485Z,1009.55
2018-08-12T10:18:33.505Z,1009.56
2018-08-12T10:19:33.514Z,1009.52
2018-08-12T10:20:33.507Z,1009.53
2018-08-12T10:21:33.542Z,1009.48
2018-08-12T10:30:16.426Z,1009.34
2018-08-12T10:31:16.257Z,1009.36
2018-08-12T10:33:09.915Z,1009.31
2018-08-12T10:34:09.917Z,1009.34
2018-08-12T10:35:09.947Z,1009.33
2018-08-12T10:36:09.930Z,1009.31
2018-08-12T10:37:09.947Z,1009.30
2018-08-12T10:38:09.963Z,1009.27
2018-08-12T10:39:09.961Z,1009.30
2018-08-12T10:40:09.979Z,1009.18
2018-08-12T10:41:09.977Z,1009.25
2018-08-12T10:42:09.997Z,1009.18
2018-08-12T10:43:10.003Z,1009.17
2018-08-12T10:44:10.004Z,1009.22
2018-08-12T10:45:10.012Z,1009.19
2018-08-12T10:46:10.020Z,1009.22
2018-08-12T10:47:10.029Z,1009.14
2018-08-12T10:48:10.035Z,1009.11
2018-08-12T10:49:10.046Z,1009.12
2018-08-12T10:50:10.065Z,1009.10
2018-08-12T10:51:10.061Z,1009.15
2018-08-12T10:52:10.073Z,1009.07
2018-08-12T10:53:10.073Z,1009.07
2018-08-12T10:54:10.083Z,1009.15
2018-08-12T10:55:10.096Z,1009.08
2018-08-12T10:56:10.105Z,1009.08
2018-08-12T10:57:10.111Z,1009.03
2018-08-12T10:58:10.117Z,1009.08
2018-08-12T10:59:10.124Z,1009.06
2018-08-12T11:00:10.172Z,1009.07
2018-08-12T11:01:10.160Z,1009.10
2018-08-12T11:02:10.177Z,1009.11
2018-08-12T11:03:10.175Z,1009.07
2018-08-12T11:04:10.172Z,1009.10
2018-08-12T11:05:10.178Z,1009.03
2018-08-12T11:06:10.249Z,1009.03
2018-08-12T11:07:10.232Z,1008.99
2018-08-12T11:08:10.262Z,1008.99
2018-08-12T11:09:10.229Z,1009.03
2018-08-12T11:10:10.227Z,1008.97
2018-08-12T11:11:10.240Z,1008.97
2018-08-12T11:12:10.247Z,1008.98
2018-08-12T11:13:10.257Z,1008.95
2018-08-12T11:14:10.267Z,1008.93
2018-08-12T11:15:10.271Z,1008.89
2018-08-12T11:16:10.279Z,1008.95
2018-08-12T11:17:10.318Z,1008.94
2018-08-12T11:18:10.299Z,1008.96
2018-08-12T11:19:10.308Z,1008.87
2018-08-12T11:20:10.325Z,1008.88
2018-08-12T11:21:10.349Z,1008.93
2018-08-12T11:22:10.345Z,1008.94
2018-08-12T11:23:10.348Z,1008.93
2018-08-12T11:24:10.386Z,1008.83
2018-08-12T11:25:10.360Z,1008.84
2018-08-12T11:26:10.371Z,1008.86
2018-08-12T11:27:10.459Z,1008.79
2018-08-12T11:28:10.384Z,1008.84
2018-08-12T11:29:10.396Z,1008.79
2018-08-12T11:30:10.406Z,1008.80
2018-08-12T11:31:10.412Z,1008.81
2018-08-12T11:32:10.427Z,1008.83
2018-08-12T11:33:10.432Z,1008.81
2018-08-12T11:34:10.463Z,1008.75
2018-08-12T11:35:10.460Z,1008.70
2018-08-12T11:36:10.464Z,1008.73
2018-08-12T11:37:10.464Z,1008.73
2018-08-12T11:38:10.472Z,1008.73
2018-08-12T11:39:10.480Z,1008.71
2018-08-12T11:40:10.495Z,1008.75
2018-08-12T11:41:10.544Z,1008.76
2018-08-12T11:42:10.503Z,1008.67
2018-08-12T11:43:10.511Z,1008.64
2018-08-12T11:44:10.522Z,1008.62
2018-08-12T11:45:10.543Z,1008.64
2018-08-12T11:46:10.536Z,1008.62
2018-08-12T11:47:10.585Z,1008.60
2018-08-12T11:48:10.559Z,1008.66
2018-08-12T11:49:10.615Z,1008.64
2018-08-12T11:50:10.567Z,1008.65
2018-08-12T11:51:10.578Z,1008.65
2018-08-12T11:52:10.585Z,1008.69
2018-08-12T11:53:10.586Z,1008.63
2018-08-12T11:54:10.596Z,1008.67
2018-08-12T11:55:10.604Z,1008.64
2018-08-12T11:56:10.612Z,1008.57
2018-08-12T11:57:10.620Z,1008.61
2018-08-12T11:58:10.634Z,1008.61
2018-08-12T11:59:10.636Z,1008.53
2018-08-12T12:00:10.651Z,1008.57
2018-08-12T12:01:10.652Z,1008.55
2018-08-12T12:02:10.703Z,1008.50
2018-08-12T12:03:10.668Z,1008.48
2018-08-12T12:04:10.677Z,1008.51
2018-08-12T12:05:10.685Z,1008.49
2018-08-12T12:06:10.694Z,1008.45
2018-08-12T12:07:10.706Z,1008.42
2018-08-12T12:08:10.712Z,1008.39
2018-08-12T12:09:10.718Z,1008.44
2018-08-12T12:10:10.725Z,1008.37
2018-08-12T12:11:10.729Z,1008.36
2018-08-12T12:12:10.742Z,1008.28
2018-08-12T12:13:10.790Z,1008.22
2018-08-12T12:14:10.754Z,1008.33